sensor_id;sensor_type;location;lat;lon;timestamp;temperature;humidity
80290;SHT30;69592;44.804;-0.550;2023-08-24T00:01:06;30.15;74.53
80290;SHT30;69592;44.804;-0.550;2023-08-24T00:03:32;30.22;75.00
80290;SHT30;69592;44.804;-0.550;2023-08-24T00:05:58;30.22;74.69
80290;SHT30;69592;44.804;-0.550;2023-08-24T00:08:23;30.15;75.20
80290;SHT30;69592;44.804;-0.550;2023-08-24T00:10:49;30.12;74.57
80290;SHT30;69592;44.804;-0.550;2023-08-24T00:13:14;30.13;74.44
80290;SHT30;69592;44.804;-0.550;2023-08-24T00:15:41;30.16;75.01
80290;SHT30;69592;44.804;-0.550;2023-08-24T00:18:06;30.09;74.55
80290;SHT30;69592;44.804;-0.550;2023-08-24T00:20:33;30.09;74.77
80290;SHT30;69592;44.804;-0.550;2023-08-24T00:22:59;29.90;75.17
80290;SHT30;69592;44.804;-0.550;2023-08-24T00:25:24;29.90;75.65
80290;SHT30;69592;44.804;-0.550;2023-08-24T00:27:52;29.83;75.85
80290;SHT30;69592;44.804;-0.550;2023-08-24T00:30:18;29.76;75.55
80290;SHT30;69592;44.804;-0.550;2023-08-24T00:32:44;29.72;75.82
80290;SHT30;69592;44.804;-0.550;2023-08-24T00:35:09;29.68;75.64
80290;SHT30;69592;44.804;-0.550;2023-08-24T00:37:36;29.66;75.51
80290;SHT30;69592;44.804;-0.550;2023-08-24T00:40:06;29.64;75.95
80290;SHT30;69592;44.804;-0.550;2023-08-24T00:42:39;29.66;75.90
80290;SHT30;69592;44.804;-0.550;2023-08-24T00:45:06;29.65;75.56
80290;SHT30;69592;44.804;-0.550;2023-08-24T00:47:32;29.66;75.71
80290;SHT30;69592;44.804;-0.550;2023-08-24T00:49:59;29.65;75.50
80290;SHT30;69592;44.804;-0.550;2023-08-24T00:52:28;29.72;75.25
80290;SHT30;69592;44.804;-0.550;2023-08-24T00:54:54;29.68;75.62
80290;SHT30;69592;44.804;-0.550;2023-08-24T00:57:20;29.62;75.84
80290;SHT30;69592;44.804;-0.550;2023-08-24T00:59:46;29.62;75.42
80290;SHT30;69592;44.804;-0.550;2023-08-24T01:02:12;29.59;75.54
80290;SHT30;69592;44.804;-0.550;2023-08-24T01:04:37;29.58;76.01
80290;SHT30;69592;44.804;-0.550;2023-08-24T01:07:03;29.58;75.52
80290;SHT30;69592;44.804;-0.550;2023-08-24T01:09:28;29.51;76.74
80290;SHT30;69592;44.804;-0.550;2023-08-24T01:12:02;29.39;77.05
80290;SHT30;69592;44.804;-0.550;2023-08-24T01:14:44;29.45;76.52
80290;SHT30;69592;44.804;-0.550;2023-08-24T01:17:14;29.42;76.97
80290;SHT30;69592;44.804;-0.550;2023-08-24T01:19:43;29.37;77.36
80290;SHT30;69592;44.804;-0.550;2023-08-24T01:27:43;29.41;77.20
80290;SHT30;69592;44.804;-0.550;2023-08-24T01:30:09;29.34;76.54
80290;SHT30;69592;44.804;-0.550;2023-08-24T01:32:35;29.31;76.54
80290;SHT30;69592;44.804;-0.550;2023-08-24T01:35:07;29.30;76.47
80290;SHT30;69592;44.804;-0.550;2023-08-24T01:37:34;29.28;76.52
80290;SHT30;69592;44.804;-0.550;2023-08-24T01:42:47;29.22;76.76
80290;SHT30;69592;44.804;-0.550;2023-08-24T01:45:16;29.22;76.75
80290;SHT30;69592;44.804;-0.550;2023-08-24T01:47:45;29.11;77.21
80290;SHT30;69592;44.804;-0.550;2023-08-24T01:50:10;29.10;76.71
80290;SHT30;69592;44.804;-0.550;2023-08-24T01:52:36;29.06;77.29
80290;SHT30;69592;44.804;-0.550;2023-08-24T01:55:02;29.01;76.37
80290;SHT30;69592;44.804;-0.550;2023-08-24T01:57:28;28.94;76.91
80290;SHT30;69592;44.804;-0.550;2023-08-24T01:59:53;28.89;77.07
80290;SHT30;69592;44.804;-0.550;2023-08-24T02:02:18;28.93;76.85
80290;SHT30;69592;44.804;-0.550;2023-08-24T02:04:44;28.93;77.59
80290;SHT30;69592;44.804;-0.550;2023-08-24T02:07:09;28.80;77.01
80290;SHT30;69592;44.804;-0.550;2023-08-24T02:09:34;28.70;77.53
80290;SHT30;69592;44.804;-0.550;2023-08-24T02:12:00;28.63;77.74
80290;SHT30;69592;44.804;-0.550;2023-08-24T02:14:25;28.60;77.91
80290;SHT30;69592;44.804;-0.550;2023-08-24T02:16:51;28.59;78.25
80290;SHT30;69592;44.804;-0.550;2023-08-24T02:19:16;28.53;78.88
80290;SHT30;69592;44.804;-0.550;2023-08-24T02:21:41;28.48;78.91
80290;SHT30;69592;44.804;-0.550;2023-08-24T02:24:07;28.49;78.50
80290;SHT30;69592;44.804;-0.550;2023-08-24T02:26:32;28.49;78.19
80290;SHT30;69592;44.804;-0.550;2023-08-24T02:28:58;28.42;78.55
80290;SHT30;69592;44.804;-0.550;2023-08-24T02:31:24;28.36;78.01
80290;SHT30;69592;44.804;-0.550;2023-08-24T02:33:49;28.40;77.90
80290;SHT30;69592;44.804;-0.550;2023-08-24T02:36:15;28.40;77.90
80290;SHT30;69592;44.804;-0.550;2023-08-24T02:38:40;28.36;77.90
80290;SHT30;69592;44.804;-0.550;2023-08-24T02:41:07;28.38;78.46
80290;SHT30;69592;44.804;-0.550;2023-08-24T02:43:33;28.38;78.04
80290;SHT30;69592;44.804;-0.550;2023-08-24T02:46:03;28.33;78.00
80290;SHT30;69592;44.804;-0.550;2023-08-24T02:48:29;28.23;78.71
80290;SHT30;69592;44.804;-0.550;2023-08-24T02:50:57;28.16;78.92
80290;SHT30;69592;44.804;-0.550;2023-08-24T02:53:22;28.15;78.84
80290;SHT30;69592;44.804;-0.550;2023-08-24T02:55:48;28.15;79.26
80290;SHT30;69592;44.804;-0.550;2023-08-24T02:58:13;28.12;79.44
80290;SHT30;69592;44.804;-0.550;2023-08-24T03:00:39;28.13;79.28
80290;SHT30;69592;44.804;-0.550;2023-08-24T03:03:04;28.10;79.42
80290;SHT30;69592;44.804;-0.550;2023-08-24T03:05:31;28.16;78.84
80290;SHT30;69592;44.804;-0.550;2023-08-24T03:07:57;28.16;79.32
80290;SHT30;69592;44.804;-0.550;2023-08-24T03:10:23;28.19;78.99
80290;SHT30;69592;44.804;-0.550;2023-08-24T03:12:48;28.13;78.93
80290;SHT30;69592;44.804;-0.550;2023-08-24T03:15:13;28.12;78.97
80290;SHT30;69592;44.804;-0.550;2023-08-24T03:17:39;28.04;79.19
80290;SHT30;69592;44.804;-0.550;2023-08-24T03:20:05;27.95;79.46
80290;SHT30;69592;44.804;-0.550;2023-08-24T03:22:30;27.89;79.64
80290;SHT30;69592;44.804;-0.550;2023-08-24T03:24:56;27.94;79.77
80290;SHT30;69592;44.804;-0.550;2023-08-24T03:27:21;27.89;79.53
80290;SHT30;69592;44.804;-0.550;2023-08-24T03:29:46;27.85;79.88
80290;SHT30;69592;44.804;-0.550;2023-08-24T03:32:12;27.78;80.16
80290;SHT30;69592;44.804;-0.550;2023-08-24T03:34:38;27.80;80.50
80290;SHT30;69592;44.804;-0.550;2023-08-24T03:37:04;27.74;80.20
80290;SHT30;69592;44.804;-0.550;2023-08-24T03:39:29;27.72;80.02
80290;SHT30;69592;44.804;-0.550;2023-08-24T03:41:54;27.71;80.36
80290;SHT30;69592;44.804;-0.550;2023-08-24T03:44:20;27.68;80.16
80290;SHT30;69592;44.804;-0.550;2023-08-24T03:46:46;27.69;80.24
80290;SHT30;69592;44.804;-0.550;2023-08-24T03:49:12;27.71;80.39
80290;SHT30;69592;44.804;-0.550;2023-08-24T03:51:37;27.72;80.41
80290;SHT30;69592;44.804;-0.550;2023-08-24T03:54:02;27.77;80.01
80290;SHT30;69592;44.804;-0.550;2023-08-24T03:56:28;27.81;80.25
80290;SHT30;69592;44.804;-0.550;2023-08-24T03:58:53;27.75;80.23
80290;SHT30;69592;44.804;-0.550;2023-08-24T04:01:19;27.74;80.08
80290;SHT30;69592;44.804;-0.550;2023-08-24T04:03:44;27.78;79.44
80290;SHT30;69592;44.804;-0.550;2023-08-24T04:06:09;27.58;79.51
80290;SHT30;69592;44.804;-0.550;2023-08-24T04:08:35;27.34;80.19
80290;SHT30;69592;44.804;-0.550;2023-08-24T04:11:01;26.89;81.11
80290;SHT30;69592;44.804;-0.550;2023-08-24T04:13:26;27.02;79.85
80290;SHT30;69592;44.804;-0.550;2023-08-24T04:15:52;27.22;78.80
80290;SHT30;69592;44.804;-0.550;2023-08-24T04:18:17;27.31;78.46
80290;SHT30;69592;44.804;-0.550;2023-08-24T04:20:42;27.45;77.80
80290;SHT30;69592;44.804;-0.550;2023-08-24T04:23:08;27.55;76.68
80290;SHT30;69592;44.804;-0.550;2023-08-24T04:25:39;27.84;75.45
80290;SHT30;69592;44.804;-0.550;2023-08-24T04:28:05;27.84;75.93
80290;SHT30;69592;44.804;-0.550;2023-08-24T04:30:30;27.85;76.05
80290;SHT30;69592;44.804;-0.550;2023-08-24T04:32:55;27.92;76.03
80290;SHT30;69592;44.804;-0.550;2023-08-24T04:35:24;28.05;76.09
80290;SHT30;69592;44.804;-0.550;2023-08-24T04:37:50;28.02;75.84
80290;SHT30;69592;44.804;-0.550;2023-08-24T04:40:15;28.02;75.70
80290;SHT30;69592;44.804;-0.550;2023-08-24T04:42:41;28.06;75.64
80290;SHT30;69592;44.804;-0.550;2023-08-24T04:45:06;28.10;75.46
80290;SHT30;69592;44.804;-0.550;2023-08-24T04:47:32;28.02;75.67
80290;SHT30;69592;44.804;-0.550;2023-08-24T04:49:58;28.01;75.74
80290;SHT30;69592;44.804;-0.550;2023-08-24T04:52:23;28.09;76.45
80290;SHT30;69592;44.804;-0.550;2023-08-24T04:54:49;28.10;76.40
80290;SHT30;69592;44.804;-0.550;2023-08-24T04:57:15;28.09;76.46
80290;SHT30;69592;44.804;-0.550;2023-08-24T04:59:40;28.08;76.43
80290;SHT30;69592;44.804;-0.550;2023-08-24T05:02:05;28.08;76.43
80290;SHT30;69592;44.804;-0.550;2023-08-24T05:04:31;28.05;76.15
80290;SHT30;69592;44.804;-0.550;2023-08-24T05:06:56;28.06;76.65
80290;SHT30;69592;44.804;-0.550;2023-08-24T05:09:21;28.13;75.95
80290;SHT30;69592;44.804;-0.550;2023-08-24T05:11:48;28.06;76.70
80290;SHT30;69592;44.804;-0.550;2023-08-24T05:14:13;28.05;76.79
80290;SHT30;69592;44.804;-0.550;2023-08-24T05:16:39;27.98;77.02
80290;SHT30;69592;44.804;-0.550;2023-08-24T05:19:04;28.02;76.90
80290;SHT30;69592;44.804;-0.550;2023-08-24T05:21:30;27.98;76.83
80290;SHT30;69592;44.804;-0.550;2023-08-24T05:23:55;27.99;76.96
80290;SHT30;69592;44.804;-0.550;2023-08-24T05:26:20;27.97;76.26
80290;SHT30;69592;44.804;-0.550;2023-08-24T05:28:49;28.06;75.71
80290;SHT30;69592;44.804;-0.550;2023-08-24T05:31:15;28.08;75.67
80290;SHT30;69592;44.804;-0.550;2023-08-24T05:33:41;28.08;75.25
80290;SHT30;69592;44.804;-0.550;2023-08-24T05:36:06;28.10;75.91
80290;SHT30;69592;44.804;-0.550;2023-08-24T05:38:32;28.12;75.14
80290;SHT30;69592;44.804;-0.550;2023-08-24T05:40:57;28.10;74.99
80290;SHT30;69592;44.804;-0.550;2023-08-24T05:43:23;28.06;74.79
80290;SHT30;69592;44.804;-0.550;2023-08-24T05:45:48;28.04;74.58
80290;SHT30;69592;44.804;-0.550;2023-08-24T05:48:14;28.10;76.62
80290;SHT30;69592;44.804;-0.550;2023-08-24T05:50:46;28.12;75.81
80290;SHT30;69592;44.804;-0.550;2023-08-24T05:53:12;28.10;77.36
80290;SHT30;69592;44.804;-0.550;2023-08-24T05:55:38;28.13;77.07
80290;SHT30;69592;44.804;-0.550;2023-08-24T05:58:04;28.12;76.25
80290;SHT30;69592;44.804;-0.550;2023-08-24T06:00:30;28.06;76.30
80290;SHT30;69592;44.804;-0.550;2023-08-24T06:02:55;28.13;76.88
80290;SHT30;69592;44.804;-0.550;2023-08-24T06:05:20;28.09;74.60
80290;SHT30;69592;44.804;-0.550;2023-08-24T06:07:46;28.06;75.12
80290;SHT30;69592;44.804;-0.550;2023-08-24T06:10:11;28.09;77.30
80290;SHT30;69592;44.804;-0.550;2023-08-24T06:12:37;28.05;75.68
80290;SHT30;69592;44.804;-0.550;2023-08-24T06:15:03;27.97;76.51
80290;SHT30;69592;44.804;-0.550;2023-08-24T06:17:30;27.95;76.44
80290;SHT30;69592;44.804;-0.550;2023-08-24T06:19:55;27.99;76.07
80290;SHT30;69592;44.804;-0.550;2023-08-24T06:22:20;28.05;75.11
80290;SHT30;69592;44.804;-0.550;2023-08-24T06:24:46;28.10;74.96
80290;SHT30;69592;44.804;-0.550;2023-08-24T06:27:11;28.20;75.30
80290;SHT30;69592;44.804;-0.550;2023-08-24T06:29:36;28.25;74.38
80290;SHT30;69592;44.804;-0.550;2023-08-24T06:32:02;28.42;75.22
80290;SHT30;69592;44.804;-0.550;2023-08-24T06:34:27;28.42;73.86
80290;SHT30;69592;44.804;-0.550;2023-08-24T06:36:53;28.39;73.64
80290;SHT30;69592;44.804;-0.550;2023-08-24T06:39:18;28.43;73.59
80290;SHT30;69592;44.804;-0.550;2023-08-24T06:41:44;28.50;73.12
80290;SHT30;69592;44.804;-0.550;2023-08-24T06:44:10;28.60;71.91
80290;SHT30;69592;44.804;-0.550;2023-08-24T06:46:35;28.69;72.38
80290;SHT30;69592;44.804;-0.550;2023-08-24T06:49:00;28.86;71.60
80290;SHT30;69592;44.804;-0.550;2023-08-24T06:51:27;28.96;71.72
80290;SHT30;69592;44.804;-0.550;2023-08-24T06:53:53;29.07;70.82
80290;SHT30;69592;44.804;-0.550;2023-08-24T06:56:18;29.15;71.33
80290;SHT30;69592;44.804;-0.550;2023-08-24T06:58:44;29.22;70.89
80290;SHT30;69592;44.804;-0.550;2023-08-24T07:01:10;29.30;70.76
80290;SHT30;69592;44.804;-0.550;2023-08-24T07:03:36;29.35;70.51
80290;SHT30;69592;44.804;-0.550;2023-08-24T07:06:01;29.38;70.02
80290;SHT30;69592;44.804;-0.550;2023-08-24T07:08:27;29.44;69.36
80290;SHT30;69592;44.804;-0.550;2023-08-24T07:10:52;29.48;68.86
80290;SHT30;69592;44.804;-0.550;2023-08-24T07:13:18;29.55;68.73
80290;SHT30;69592;44.804;-0.550;2023-08-24T07:15:43;29.64;68.60
80290;SHT30;69592;44.804;-0.550;2023-08-24T07:18:10;29.72;68.45
80290;SHT30;69592;44.804;-0.550;2023-08-24T07:20:37;29.81;68.52
80290;SHT30;69592;44.804;-0.550;2023-08-24T07:23:02;29.83;68.30
80290;SHT30;69592;44.804;-0.550;2023-08-24T07:25:28;29.93;67.25
80290;SHT30;69592;44.804;-0.550;2023-08-24T07:27:54;30.06;67.77
80290;SHT30;69592;44.804;-0.550;2023-08-24T07:30:26;30.17;67.23
80290;SHT30;69592;44.804;-0.550;2023-08-24T07:32:53;30.32;67.78
80290;SHT30;69592;44.804;-0.550;2023-08-24T07:35:18;30.36;68.17
80290;SHT30;69592;44.804;-0.550;2023-08-24T07:37:46;30.29;67.21
80290;SHT30;69592;44.804;-0.550;2023-08-24T07:40:13;30.20;66.00
80290;SHT30;69592;44.804;-0.550;2023-08-24T07:42:46;30.15;65.96
80290;SHT30;69592;44.804;-0.550;2023-08-24T07:45:12;30.23;66.66
80290;SHT30;69592;44.804;-0.550;2023-08-24T07:47:39;30.26;65.45
80290;SHT30;69592;44.804;-0.550;2023-08-24T07:50:05;30.22;66.08
80290;SHT30;69592;44.804;-0.550;2023-08-24T07:52:31;30.39;66.58
80290;SHT30;69592;44.804;-0.550;2023-08-24T07:54:57;30.46;65.87
80290;SHT30;69592;44.804;-0.550;2023-08-24T07:57:24;30.53;64.91
80290;SHT30;69592;44.804;-0.550;2023-08-24T07:59:51;30.50;65.44
80290;SHT30;69592;44.804;-0.550;2023-08-24T08:02:17;30.50;65.44
80290;SHT30;69592;44.804;-0.550;2023-08-24T08:04:42;30.61;64.83
80290;SHT30;69592;44.804;-0.550;2023-08-24T08:07:09;30.57;64.55
80290;SHT30;69592;44.804;-0.550;2023-08-24T08:09:36;30.63;64.38
80290;SHT30;69592;44.804;-0.550;2023-08-24T08:12:01;30.64;64.68
80290;SHT30;69592;44.804;-0.550;2023-08-24T08:14:27;30.76;64.51
80290;SHT30;69592;44.804;-0.550;2023-08-24T08:16:52;30.92;64.74
80290;SHT30;69592;44.804;-0.550;2023-08-24T08:19:17;30.91;64.65
80290;SHT30;69592;44.804;-0.550;2023-08-24T08:21:44;30.92;64.83
80290;SHT30;69592;44.804;-0.550;2023-08-24T08:24:11;30.95;64.86
80290;SHT30;69592;44.804;-0.550;2023-08-24T08:26:37;30.95;64.64
80290;SHT30;69592;44.804;-0.550;2023-08-24T08:29:03;31.07;63.90
80290;SHT30;69592;44.804;-0.550;2023-08-24T08:31:28;31.19;64.18
80290;SHT30;69592;44.804;-0.550;2023-08-24T08:33:54;31.21;64.39
80290;SHT30;69592;44.804;-0.550;2023-08-24T08:36:19;31.37;64.02
80290;SHT30;69592;44.804;-0.550;2023-08-24T08:38:44;31.43;63.91
80290;SHT30;69592;44.804;-0.550;2023-08-24T08:41:10;31.45;64.24
80290;SHT30;69592;44.804;-0.550;2023-08-24T08:43:39;31.51;63.96
80290;SHT30;69592;44.804;-0.550;2023-08-24T08:46:04;31.58;63.97
80290;SHT30;69592;44.804;-0.550;2023-08-24T08:48:33;31.69;64.11
80290;SHT30;69592;44.804;-0.550;2023-08-24T08:50:59;31.89;63.26
80290;SHT30;69592;44.804;-0.550;2023-08-24T08:53:27;32.03;63.11
80290;SHT30;69592;44.804;-0.550;2023-08-24T08:55:53;32.09;62.97
80290;SHT30;69592;44.804;-0.550;2023-08-24T08:58:21;32.19;63.44
80290;SHT30;69592;44.804;-0.550;2023-08-24T09:00:47;32.24;63.56
80290;SHT30;69592;44.804;-0.550;2023-08-24T09:03:15;32.45;62.85
80290;SHT30;69592;44.804;-0.550;2023-08-24T09:05:42;32.54;63.10
80290;SHT30;69592;44.804;-0.550;2023-08-24T09:08:09;32.70;62.50
80290;SHT30;69592;44.804;-0.550;2023-08-24T09:10:35;32.73;62.26
80290;SHT30;69592;44.804;-0.550;2023-08-24T09:13:00;32.85;61.61
80290;SHT30;69592;44.804;-0.550;2023-08-24T09:15:26;32.92;62.05
80290;SHT30;69592;44.804;-0.550;2023-08-24T09:17:53;33.12;60.69
80290;SHT30;69592;44.804;-0.550;2023-08-24T09:20:20;33.31;61.44
80290;SHT30;69592;44.804;-0.550;2023-08-24T09:22:45;33.45;59.21
80290;SHT30;69592;44.804;-0.550;2023-08-24T09:25:11;33.55;59.68
80290;SHT30;69592;44.804;-0.550;2023-08-24T09:27:36;33.70;58.73
80290;SHT30;69592;44.804;-0.550;2023-08-24T09:30:02;33.82;58.33
80290;SHT30;69592;44.804;-0.550;2023-08-24T09:32:29;33.97;58.16
80290;SHT30;69592;44.804;-0.550;2023-08-24T09:34:55;34.16;57.77
80290;SHT30;69592;44.804;-0.550;2023-08-24T09:37:21;34.26;56.48
80290;SHT30;69592;44.804;-0.550;2023-08-24T09:39:47;34.41;55.12
80290;SHT30;69592;44.804;-0.550;2023-08-24T09:42:13;34.53;54.98
80290;SHT30;69592;44.804;-0.550;2023-08-24T09:44:43;34.67;54.96
80290;SHT30;69592;44.804;-0.550;2023-08-24T09:47:10;34.85;54.35
80290;SHT30;69592;44.804;-0.550;2023-08-24T09:49:36;34.99;53.15
80290;SHT30;69592;44.804;-0.550;2023-08-24T09:52:02;35.14;52.97
80290;SHT30;69592;44.804;-0.550;2023-08-24T09:54:32;35.43;51.89
80290;SHT30;69592;44.804;-0.550;2023-08-24T09:57:01;35.65;50.35
80290;SHT30;69592;44.804;-0.550;2023-08-24T09:59:31;35.93;49.51
80290;SHT30;69592;44.804;-0.550;2023-08-24T10:01:58;36.11;49.75
80290;SHT30;69592;44.804;-0.550;2023-08-24T10:04:29;36.24;48.14
80290;SHT30;69592;44.804;-0.550;2023-08-24T10:07:11;36.47;46.51
80290;SHT30;69592;44.804;-0.550;2023-08-24T10:12:31;36.84;45.97
80290;SHT30;69592;44.804;-0.550;2023-08-24T10:15:01;36.85;46.02
80290;SHT30;69592;44.804;-0.550;2023-08-24T10:17:32;36.95;47.17
80290;SHT30;69592;44.804;-0.550;2023-08-24T10:20:00;37.01;44.68
80290;SHT30;69592;44.804;-0.550;2023-08-24T10:22:35;37.01;45.39
80290;SHT30;69592;44.804;-0.550;2023-08-24T10:25:02;37.07;45.23
80290;SHT30;69592;44.804;-0.550;2023-08-24T10:27:28;37.11;45.74
80290;SHT30;69592;44.804;-0.550;2023-08-24T10:29:55;37.18;45.70
80290;SHT30;69592;44.804;-0.550;2023-08-24T10:32:21;37.23;45.15
80290;SHT30;69592;44.804;-0.550;2023-08-24T10:34:47;37.28;45.51
80290;SHT30;69592;44.804;-0.550;2023-08-24T10:37:13;37.36;45.37
80290;SHT30;69592;44.804;-0.550;2023-08-24T10:39:47;37.45;44.49
80290;SHT30;69592;44.804;-0.550;2023-08-24T10:42:14;37.42;44.23
80290;SHT30;69592;44.804;-0.550;2023-08-24T10:44:44;37.41;45.20
80290;SHT30;69592;44.804;-0.550;2023-08-24T10:47:14;37.42;45.27
80290;SHT30;69592;44.804;-0.550;2023-08-24T10:49:41;37.49;44.42
80290;SHT30;69592;44.804;-0.550;2023-08-24T10:52:17;37.70;45.05
80290;SHT30;69592;44.804;-0.550;2023-08-24T10:54:44;37.69;44.20
80290;SHT30;69592;44.804;-0.550;2023-08-24T10:57:24;37.72;44.33
80290;SHT30;69592;44.804;-0.550;2023-08-24T11:02:48;37.69;42.69
80290;SHT30;69592;44.804;-0.550;2023-08-24T11:05:25;37.80;42.66
80290;SHT30;69592;44.804;-0.550;2023-08-24T11:08:06;37.62;41.43
80290;SHT30;69592;44.804;-0.550;2023-08-24T11:10:45;37.62;42.19
80290;SHT30;69592;44.804;-0.550;2023-08-24T11:13:15;37.68;41.56
80290;SHT30;69592;44.804;-0.550;2023-08-24T11:15:43;37.76;42.48
80290;SHT30;69592;44.804;-0.550;2023-08-24T11:18:14;37.80;41.98
80290;SHT30;69592;44.804;-0.550;2023-08-24T11:20:44;37.73;42.12
80290;SHT30;69592;44.804;-0.550;2023-08-24T11:23:11;37.83;41.86
80290;SHT30;69592;44.804;-0.550;2023-08-24T11:25:37;37.90;41.41
80290;SHT30;69592;44.804;-0.550;2023-08-24T11:28:03;38.02;41.74
80290;SHT30;69592;44.804;-0.550;2023-08-24T11:30:30;37.99;42.07
80290;SHT30;69592;44.804;-0.550;2023-08-24T11:32:56;38.02;41.75
80290;SHT30;69592;44.804;-0.550;2023-08-24T11:35:22;38.02;42.51
80290;SHT30;69592;44.804;-0.550;2023-08-24T11:37:57;37.89;42.01
80290;SHT30;69592;44.804;-0.550;2023-08-24T11:40:23;38.07;42.70
80290;SHT30;69592;44.804;-0.550;2023-08-24T11:42:58;38.26;42.57
80290;SHT30;69592;44.804;-0.550;2023-08-24T11:45:24;38.33;41.20
80290;SHT30;69592;44.804;-0.550;2023-08-24T11:47:54;38.34;41.36
80290;SHT30;69592;44.804;-0.550;2023-08-24T11:50:19;38.41;41.47
80290;SHT30;69592;44.804;-0.550;2023-08-24T11:52:45;38.27;40.01
80290;SHT30;69592;44.804;-0.550;2023-08-24T11:55:11;38.47;40.70
80290;SHT30;69592;44.804;-0.550;2023-08-24T11:57:37;38.51;40.50
80290;SHT30;69592;44.804;-0.550;2023-08-24T12:00:04;38.65;40.34
80290;SHT30;69592;44.804;-0.550;2023-08-24T12:02:30;38.63;40.45
80290;SHT30;69592;44.804;-0.550;2023-08-24T12:04:57;38.82;40.85
80290;SHT30;69592;44.804;-0.550;2023-08-24T12:07:23;39.02;40.47
80290;SHT30;69592;44.804;-0.550;2023-08-24T12:09:48;38.92;39.87
80290;SHT30;69592;44.804;-0.550;2023-08-24T12:12:18;39.04;40.11
80290;SHT30;69592;44.804;-0.550;2023-08-24T12:14:46;39.11;40.69
80290;SHT30;69592;44.804;-0.550;2023-08-24T12:17:13;39.07;41.37
80290;SHT30;69592;44.804;-0.550;2023-08-24T12:19:45;39.18;40.66
80290;SHT30;69592;44.804;-0.550;2023-08-24T12:22:21;39.14;40.75
80290;SHT30;69592;44.804;-0.550;2023-08-24T12:24:47;39.18;40.21
80290;SHT30;69592;44.804;-0.550;2023-08-24T12:27:26;38.98;39.51
80290;SHT30;69592;44.804;-0.550;2023-08-24T12:29:52;38.99;40.18
80290;SHT30;69592;44.804;-0.550;2023-08-24T12:32:18;39.02;40.56
80290;SHT30;69592;44.804;-0.550;2023-08-24T12:34:50;38.92;40.19
80290;SHT30;69592;44.804;-0.550;2023-08-24T12:37:20;38.82;39.23
80290;SHT30;69592;44.804;-0.550;2023-08-24T12:39:45;38.87;41.08
80290;SHT30;69592;44.804;-0.550;2023-08-24T12:42:11;39.09;40.47
80290;SHT30;69592;44.804;-0.550;2023-08-24T12:44:36;39.22;41.48
80290;SHT30;69592;44.804;-0.550;2023-08-24T12:47:02;38.95;40.09
80290;SHT30;69592;44.804;-0.550;2023-08-24T12:49:28;38.95;39.56
80290;SHT30;69592;44.804;-0.550;2023-08-24T12:51:53;39.15;38.80
80290;SHT30;69592;44.804;-0.550;2023-08-24T12:54:19;39.17;39.22
80290;SHT30;69592;44.804;-0.550;2023-08-24T12:56:44;39.21;38.83
80290;SHT30;69592;44.804;-0.550;2023-08-24T12:59:10;39.36;39.02
80290;SHT30;69592;44.804;-0.550;2023-08-24T13:01:36;39.35;39.45
80290;SHT30;69592;44.804;-0.550;2023-08-24T13:04:01;39.19;39.56
80290;SHT30;69592;44.804;-0.550;2023-08-24T13:06:27;39.05;38.89
80290;SHT30;69592;44.804;-0.550;2023-08-24T13:08:52;39.28;39.84
80290;SHT30;69592;44.804;-0.550;2023-08-24T13:11:18;39.28;39.30
80290;SHT30;69592;44.804;-0.550;2023-08-24T13:13:43;39.60;39.07
80290;SHT30;69592;44.804;-0.550;2023-08-24T13:16:10;39.72;38.58
80290;SHT30;69592;44.804;-0.550;2023-08-24T13:18:36;39.82;40.32
80290;SHT30;69592;44.804;-0.550;2023-08-24T13:21:01;39.70;38.63
80290;SHT30;69592;44.804;-0.550;2023-08-24T13:23:27;39.96;37.15
80290;SHT30;69592;44.804;-0.550;2023-08-24T13:25:52;40.01;37.77
80290;SHT30;69592;44.804;-0.550;2023-08-24T13:28:18;40.00;38.44
80290;SHT30;69592;44.804;-0.550;2023-08-24T13:30:43;40.14;39.17
80290;SHT30;69592;44.804;-0.550;2023-08-24T13:33:09;40.14;38.88
80290;SHT30;69592;44.804;-0.550;2023-08-24T13:35:34;40.23;37.18
80290;SHT30;69592;44.804;-0.550;2023-08-24T13:38:00;40.13;37.71
80290;SHT30;69592;44.804;-0.550;2023-08-24T13:40:25;40.19;38.30
80290;SHT30;69592;44.804;-0.550;2023-08-24T13:42:50;39.92;39.19
80290;SHT30;69592;44.804;-0.550;2023-08-24T13:45:16;40.06;38.16
80290;SHT30;69592;44.804;-0.550;2023-08-24T13:47:41;40.06;38.51
80290;SHT30;69592;44.804;-0.550;2023-08-24T13:50:07;39.99;38.14
80290;SHT30;69592;44.804;-0.550;2023-08-24T13:52:33;40.07;37.87
80290;SHT30;69592;44.804;-0.550;2023-08-24T13:54:58;40.13;38.67
80290;SHT30;69592;44.804;-0.550;2023-08-24T13:57:24;40.06;37.88
80290;SHT30;69592;44.804;-0.550;2023-08-24T13:59:50;40.07;38.07
80290;SHT30;69592;44.804;-0.550;2023-08-24T14:02:17;40.09;38.42
80290;SHT30;69592;44.804;-0.550;2023-08-24T14:04:43;40.19;38.18
80290;SHT30;69592;44.804;-0.550;2023-08-24T14:07:11;40.23;36.96
80290;SHT30;69592;44.804;-0.550;2023-08-24T14:09:36;40.14;37.13
80290;SHT30;69592;44.804;-0.550;2023-08-24T14:12:02;40.11;38.04
80290;SHT30;69592;44.804;-0.550;2023-08-24T14:14:27;40.00;37.52
80290;SHT30;69592;44.804;-0.550;2023-08-24T14:16:56;40.07;38.81
80290;SHT30;69592;44.804;-0.550;2023-08-24T14:19:24;39.90;38.72
80290;SHT30;69592;44.804;-0.550;2023-08-24T14:21:51;39.85;37.78
80290;SHT30;69592;44.804;-0.550;2023-08-24T14:24:16;40.03;36.23
80290;SHT30;69592;44.804;-0.550;2023-08-24T14:26:42;39.77;36.58
80290;SHT30;69592;44.804;-0.550;2023-08-24T14:29:11;40.00;36.73
80290;SHT30;69592;44.804;-0.550;2023-08-24T14:31:36;40.07;36.17
80290;SHT30;69592;44.804;-0.550;2023-08-24T14:34:02;39.90;36.44
80290;SHT30;69592;44.804;-0.550;2023-08-24T14:36:28;39.89;35.76
80290;SHT30;69592;44.804;-0.550;2023-08-24T14:38:54;40.04;36.58
80290;SHT30;69592;44.804;-0.550;2023-08-24T14:41:20;39.83;35.94
80290;SHT30;69592;44.804;-0.550;2023-08-24T14:43:46;39.99;35.68
80290;SHT30;69592;44.804;-0.550;2023-08-24T14:46:13;40.11;35.96
80290;SHT30;69592;44.804;-0.550;2023-08-24T14:48:39;40.13;35.58
80290;SHT30;69592;44.804;-0.550;2023-08-24T14:51:05;40.19;35.90
80290;SHT30;69592;44.804;-0.550;2023-08-24T14:53:31;40.13;36.31
80290;SHT30;69592;44.804;-0.550;2023-08-24T14:55:57;40.00;36.54
80290;SHT30;69592;44.804;-0.550;2023-08-24T14:58:26;39.92;37.88
80290;SHT30;69592;44.804;-0.550;2023-08-24T15:00:53;40.00;37.57
80290;SHT30;69592;44.804;-0.550;2023-08-24T15:03:19;40.23;37.08
80290;SHT30;69592;44.804;-0.550;2023-08-24T15:05:55;40.31;37.61
80290;SHT30;69592;44.804;-0.550;2023-08-24T15:08:21;40.26;37.52
80290;SHT30;69592;44.804;-0.550;2023-08-24T15:10:48;40.41;37.08
80290;SHT30;69592;44.804;-0.550;2023-08-24T15:13:13;40.37;37.42
80290;SHT30;69592;44.804;-0.550;2023-08-24T15:15:39;40.27;36.94
80290;SHT30;69592;44.804;-0.550;2023-08-24T15:18:04;40.47;36.90
80290;SHT30;69592;44.804;-0.550;2023-08-24T15:20:30;40.41;36.79
80290;SHT30;69592;44.804;-0.550;2023-08-24T15:22:55;40.51;37.17
80290;SHT30;69592;44.804;-0.550;2023-08-24T15:25:20;40.51;37.72